createdAt,value
2023-03-27T00:00:09.829Z,98232.63
2023-03-27T00:02:36.634Z,98244.97
2023-03-27T00:05:05.034Z,98253.09
2023-03-27T00:07:31.789Z,98263.94
2023-03-27T00:09:58.351Z,98267.19
2023-03-27T00:12:25.045Z,98272.94
2023-03-27T00:14:51.598Z,98275.13
2023-03-27T00:17:18.262Z,98292.59
2023-03-27T00:19:45.097Z,98289.44
2023-03-27T00:22:12.996Z,98294.16
2023-03-27T00:24:39.540Z,98297.41
2023-03-27T00:27:06.318Z,98296.41
2023-03-27T00:29:33.041Z,98305.84
2023-03-27T00:31:59.783Z,98314.03
2023-03-27T00:34:26.345Z,98321.50
2023-03-27T00:36:53.013Z,98315.13
2023-03-27T00:39:20.921Z,98319.47
2023-03-27T00:41:47.544Z,98321.94
2023-03-27T00:44:32.110Z,98330.53
2023-03-27T00:46:58.785Z,98334.03
2023-03-27T00:49:28.037Z,98327.06
2023-03-27T00:51:54.951Z,98334.31
2023-03-27T00:54:27.135Z,98337.88
2023-03-27T00:56:56.370Z,98336.50
2023-03-27T00:59:27.140Z,98348.88
2023-03-27T01:01:53.681Z,98349.41
2023-03-27T01:04:22.021Z,98342.97
2023-03-27T01:06:51.083Z,98345.91
2023-03-27T01:09:20.616Z,98356.94
2023-03-27T01:12:01.346Z,98349.69
2023-03-27T01:14:36.620Z,98352.13
2023-03-27T01:17:16.648Z,98357.28
2023-03-27T01:20:09.927Z,98375.81
2023-03-27T01:23:08.002Z,98376.06
2023-03-27T01:26:18.778Z,98372.28
2023-03-27T01:29:11.393Z,98382.94
2023-03-27T01:32:00.680Z,98397.78
2023-03-27T01:35:03.561Z,98408.53
2023-03-27T01:37:46.852Z,98412.00
2023-03-27T01:40:19.252Z,98401.00
2023-03-27T01:42:48.983Z,98420.31
2023-03-27T01:45:19.168Z,98423.81
2023-03-27T01:47:53.516Z,98428.59
2023-03-27T01:50:25.904Z,98428.38
2023-03-27T01:52:56.520Z,98435.63
2023-03-27T01:55:29.790Z,98440.69
2023-03-27T01:57:59.672Z,98445.00
2023-03-27T02:00:28.195Z,98443.13
2023-03-27T02:03:18.456Z,98435.09
2023-03-27T02:05:49.353Z,98448.22
2023-03-27T02:08:21.545Z,98450.16
2023-03-27T02:10:54.464Z,98456.09
2023-03-27T02:13:26.912Z,98464.94
2023-03-27T02:15:57.725Z,98466.00
2023-03-27T02:18:31.746Z,98470.81
2023-03-27T02:20:58.673Z,98477.53
2023-03-27T02:23:25.489Z,98474.63
2023-03-27T02:25:53.481Z,98481.88
2023-03-27T02:28:40.206Z,98491.84
2023-03-27T02:31:33.903Z,98497.16
2023-03-27T02:34:38.491Z,98507.41
2023-03-27T02:37:12.937Z,98517.66
2023-03-27T02:39:48.023Z,98523.56
2023-03-27T02:42:22.965Z,98532.47
2023-03-27T02:44:54.590Z,98537.56
2023-03-27T02:47:27.143Z,98537.09
2023-03-27T02:49:57.507Z,98546.78
2023-03-27T02:52:28.407Z,98551.38
2023-03-27T02:55:01.487Z,98561.59
2023-03-27T02:57:31.297Z,98558.41
2023-03-27T03:00:00.332Z,98565.94
2023-03-27T03:02:32.584Z,98573.72
2023-03-27T03:05:04.929Z,98576.16
2023-03-27T03:07:31.727Z,98581.03
2023-03-27T03:09:58.250Z,98579.44
2023-03-27T03:12:24.865Z,98587.25
2023-03-27T03:14:52.839Z,98586.97
2023-03-27T03:17:19.376Z,98597.72
2023-03-27T03:19:45.920Z,98597.47
2023-03-27T03:22:12.725Z,98605.53
2023-03-27T03:24:39.322Z,98607.94
2023-03-27T03:27:05.989Z,98613.03
2023-03-27T03:29:32.644Z,98619.22
2023-03-27T03:32:00.503Z,98619.78
2023-03-27T03:34:27.245Z,98632.34
2023-03-27T03:36:53.919Z,98627.56
2023-03-27T03:39:21.106Z,98643.34
2023-03-27T03:41:47.941Z,98636.91
2023-03-27T03:44:14.645Z,98653.22
2023-03-27T03:46:41.258Z,98655.38
2023-03-27T03:49:09.781Z,98653.50
2023-03-27T03:51:36.677Z,98655.63
2023-03-27T03:54:04.401Z,98665.28
2023-03-27T03:56:30.916Z,98669.59
2023-03-27T03:58:57.494Z,98674.41
2023-03-27T04:01:24.284Z,98682.69
2023-03-27T04:03:50.958Z,98682.69
2023-03-27T04:06:20.538Z,98688.03
2023-03-27T04:08:47.879Z,98690.44
2023-03-27T04:11:14.492Z,98693.13
2023-03-27T04:13:41.067Z,98700.31
2023-03-27T04:16:08.277Z,98708.88
2023-03-27T04:18:35.367Z,98712.91
2023-03-27T04:21:02.566Z,98713.41
2023-03-27T04:23:30.728Z,98719.84
2023-03-27T04:25:57.930Z,98725.19
2023-03-27T04:28:24.483Z,98732.94
2023-03-27T04:30:51.036Z,98735.63
2023-03-27T04:33:17.606Z,98736.94
2023-03-27T04:35:44.616Z,98746.31
2023-03-27T04:38:11.370Z,98746.56
2023-03-27T04:40:39.489Z,98746.84
2023-03-27T04:43:06.241Z,98751.13
2023-03-27T04:45:32.792Z,98751.66
2023-03-27T04:47:59.613Z,98762.63
2023-03-27T04:50:26.231Z,98768.22
2023-03-27T04:52:52.806Z,98764.75
2023-03-27T04:55:19.517Z,98768.75
2023-03-27T04:57:47.797Z,98777.03
2023-03-27T05:00:15.016Z,98781.81
2023-03-27T05:02:41.832Z,98791.13
2023-03-27T05:05:09.511Z,98789.53
2023-03-27T05:07:36.115Z,98799.16
2023-03-27T05:10:02.730Z,98792.19
2023-03-27T05:12:29.343Z,98798.31
2023-03-27T05:14:57.252Z,98806.31
2023-03-27T05:17:23.778Z,98797.19
2023-03-27T05:19:50.305Z,98808.09
2023-03-27T05:22:16.936Z,98808.34
2023-03-27T05:24:43.652Z,98806.75
2023-03-27T05:27:10.226Z,98821.97
2023-03-27T05:29:47.044Z,98828.94
2023-03-27T05:32:15.514Z,98831.84
2023-03-27T05:34:42.233Z,98837.47
2023-03-27T05:37:08.956Z,98842.53
2023-03-27T05:39:35.476Z,98842.28
2023-03-27T05:42:02.211Z,98849.50
2023-03-27T05:44:28.723Z,98859.41
2023-03-27T05:46:55.234Z,98859.41
2023-03-27T05:49:23.197Z,98870.13
2023-03-27T05:51:49.732Z,98867.19
2023-03-27T05:54:16.493Z,98866.94
2023-03-27T05:56:43.332Z,98869.63
2023-03-27T05:59:09.970Z,98874.97
2023-03-27T06:01:36.560Z,98882.47
2023-03-27T06:04:03.757Z,98890.00
2023-03-27T06:06:31.762Z,98897.75
2023-03-27T06:08:58.422Z,98894.59
2023-03-27T06:11:25.191Z,98905.06
2023-03-27T06:13:51.864Z,98908.53
2023-03-27T06:16:18.475Z,98913.91
2023-03-27T06:18:45.179Z,98908.25
2023-03-27T06:21:11.914Z,98912.28
2023-03-27T06:23:39.841Z,98915.75
2023-03-27T06:26:06.569Z,98920.81
2023-03-27T06:28:33.189Z,98918.94
2023-03-27T06:30:59.930Z,98928.03
2023-03-27T06:33:27.248Z,98932.31
2023-03-27T06:35:54.269Z,98940.06
2023-03-27T06:38:20.978Z,98947.59
2023-03-27T06:40:48.912Z,98945.97
2023-03-27T06:43:15.714Z,98948.16
2023-03-27T06:45:44.070Z,98954.84
2023-03-27T06:48:17.699Z,98957.28
2023-03-27T06:50:48.614Z,98959.50
2023-03-27T06:53:25.937Z,98964.38
2023-03-27T06:55:55.771Z,98964.13
2023-03-27T06:58:22.620Z,98964.16
2023-03-27T07:00:49.728Z,98967.69
2023-03-27T07:03:17.550Z,98974.38
2023-03-27T07:05:44.210Z,98977.06
2023-03-27T07:08:22.442Z,98976.81
2023-03-27T07:11:00.014Z,98970.91
2023-03-27T07:13:38.605Z,98974.38
2023-03-27T07:16:06.307Z,98977.56
2023-03-27T07:18:33.010Z,98978.06
2023-03-27T07:21:00.262Z,98986.38
2023-03-27T07:23:27.022Z,98983.59
2023-03-27T07:25:57.581Z,98984.88
2023-03-27T07:28:24.299Z,98986.69
2023-03-27T07:30:52.345Z,98982.59
2023-03-27T07:33:18.992Z,98996.41
2023-03-27T07:35:47.078Z,99002.72
2023-03-27T07:38:14.483Z,98998.41
2023-03-27T07:40:42.910Z,99002.06
2023-03-27T07:43:09.555Z,99011.97
2023-03-27T07:45:36.342Z,99005.66
2023-03-27T07:48:09.099Z,99009.91
2023-03-27T07:50:36.351Z,99019.03
2023-03-27T07:53:03.320Z,99027.03
2023-03-27T07:55:29.876Z,99029.97
2023-03-27T07:58:01.771Z,99027.19
2023-03-27T08:00:30.113Z,99039.34
2023-03-27T08:03:04.811Z,99038.66
2023-03-27T08:05:32.947Z,99047.84
2023-03-27T08:07:59.564Z,99044.84
2023-03-27T08:10:26.202Z,99043.75
2023-03-27T08:12:52.746Z,99052.63
2023-03-27T08:15:20.404Z,99055.25
2023-03-27T08:17:47.096Z,99057.00
2023-03-27T08:20:13.807Z,99056.69
2023-03-27T08:22:41.820Z,99060.13
2023-03-27T08:25:09.329Z,99048.78
2023-03-27T08:27:36.235Z,99071.31
2023-03-27T08:30:04.454Z,99062.94
2023-03-27T08:32:31.755Z,99063.19
2023-03-27T08:34:58.682Z,99063.16
2023-03-27T08:37:25.203Z,99063.06
2023-03-27T08:39:53.287Z,99085.00
2023-03-27T08:42:24.558Z,99068.38
2023-03-27T08:44:54.300Z,99080.41
2023-03-27T08:47:28.094Z,99087.91
2023-03-27T08:49:58.082Z,99079.63
2023-03-27T08:52:26.916Z,99082.06
2023-03-27T08:54:58.324Z,99078.81
2023-03-27T08:57:25.737Z,99096.22
2023-03-27T08:59:57.048Z,99092.84
2023-03-27T09:02:36.962Z,99097.03
2023-03-27T09:05:14.044Z,99103.19
2023-03-27T09:07:48.832Z,99109.28
2023-03-27T09:10:26.001Z,99117.53
2023-03-27T09:13:03.058Z,99115.75
2023-03-27T09:15:34.497Z,99122.19
2023-03-27T09:18:05.386Z,99117.72
2023-03-27T09:20:36.468Z,99120.47
2023-03-27T09:23:10.322Z,99114.56
2023-03-27T09:25:40.859Z,99103.47
2023-03-27T09:28:16.608Z,99121.84
2023-03-27T09:30:43.364Z,99126.00
2023-03-27T09:33:11.736Z,99127.16
2023-03-27T09:35:39.016Z,99126.00
2023-03-27T09:38:23.680Z,99123.25
2023-03-27T09:40:56.418Z,99134.13
2023-03-27T09:43:26.433Z,99123.81
2023-03-27T09:45:54.730Z,99120.81
2023-03-27T09:48:30.472Z,99141.59
2023-03-27T09:50:57.306Z,99131.44
2023-03-27T09:53:23.949Z,99139.34
2023-03-27T09:55:55.532Z,99139.88
2023-03-27T09:58:36.388Z,99151.97
2023-03-27T10:01:16.245Z,99152.63
2023-03-27T10:03:47.542Z,99161.81
2023-03-27T10:06:23.535Z,99155.06
2023-03-27T10:08:50.298Z,99147.69
2023-03-27T10:11:21.645Z,99156.25
2023-03-27T10:13:50.235Z,99162.97
2023-03-27T10:16:19.461Z,99156.63
2023-03-27T10:18:48.706Z,99166.66
2023-03-27T10:21:26.098Z,99165.44
2023-03-27T10:24:00.368Z,99172.00
2023-03-27T10:26:31.375Z,99160.09
2023-03-27T10:29:00.745Z,99158.78
2023-03-27T10:31:30.939Z,99158.44
2023-03-27T10:34:00.014Z,99153.78
2023-03-27T10:36:26.635Z,99148.41
2023-03-27T10:38:56.875Z,99168.59
2023-03-27T10:41:28.812Z,99150.16
2023-03-27T10:43:57.899Z,99149.53
2023-03-27T10:46:26.913Z,99166.50
2023-03-27T10:49:02.525Z,99155.81
2023-03-27T10:51:46.550Z,99157.84
2023-03-27T10:54:32.481Z,99153.69
2023-03-27T10:57:02.551Z,99141.41
2023-03-27T10:59:41.563Z,99151.81
2023-03-27T11:02:17.847Z,99161.63
2023-03-27T11:04:51.504Z,99182.53
2023-03-27T11:07:23.660Z,99218.47
2023-03-27T11:09:57.691Z,99227.78
2023-03-27T11:12:26.668Z,99244.56
2023-03-27T11:14:59.152Z,99235.38
2023-03-27T11:17:30.118Z,99240.09
2023-03-27T11:20:01.585Z,99220.94
2023-03-27T11:22:32.257Z,99210.28
2023-03-27T11:25:05.420Z,99208.16
2023-03-27T11:27:38.253Z,99209.56
2023-03-27T11:30:25.801Z,99209.00
2023-03-27T11:33:05.311Z,99206.84
2023-03-27T11:35:37.972Z,99210.59
2023-03-27T11:38:10.658Z,99206.69
2023-03-27T11:40:40.175Z,99219.00
2023-03-27T11:43:10.831Z,99208.03
2023-03-27T11:45:51.081Z,99196.81
2023-03-27T11:48:41.298Z,99214.00
2023-03-27T11:51:18.706Z,99209.03
2023-03-27T11:54:04.242Z,99222.75
2023-03-27T11:56:41.894Z,99228.88
2023-03-27T11:59:20.609Z,99238.41
2023-03-27T12:01:57.259Z,99242.63
2023-03-27T12:04:37.597Z,99227.63
2023-03-27T12:07:15.390Z,99236.69
2023-03-27T12:09:53.634Z,99244.00
2023-03-27T12:12:46.566Z,99236.00
2023-03-27T12:15:40.251Z,99235.91
2023-03-27T12:18:22.620Z,99226.41
2023-03-27T12:21:01.215Z,99228.47
2023-03-27T12:23:45.071Z,99221.66
2023-03-27T12:26:27.682Z,99221.44
2023-03-27T12:29:04.040Z,99219.16
2023-03-27T12:32:07.002Z,99221.25
2023-03-27T12:34:49.492Z,99217.28
2023-03-27T12:37:18.223Z,99235.50
2023-03-27T12:39:48.482Z,99245.03
2023-03-27T12:42:44.112Z,99246.81
2023-03-27T12:45:16.735Z,99246.91
2023-03-27T12:47:46.001Z,99235.56
2023-03-27T12:50:20.969Z,99232.78
2023-03-27T12:52:47.564Z,99234.66
2023-03-27T12:55:34.812Z,99245.84
2023-03-27T12:58:03.790Z,99237.22
2023-03-27T13:00:32.050Z,99219.88
2023-03-27T13:03:21.618Z,99235.69
2023-03-27T13:06:12.434Z,99232.78
2023-03-27T13:08:51.619Z,99212.06
2023-03-27T13:11:33.272Z,99211.47
2023-03-27T13:14:31.849Z,99208.34
2023-03-27T13:17:34.231Z,99216.47
2023-03-27T13:20:13.970Z,99220.13
2023-03-27T13:22:56.186Z,99218.28
2023-03-27T13:25:32.420Z,99211.41
2023-03-27T13:28:30.682Z,99199.66
2023-03-27T13:30:58.782Z,99203.56
2023-03-27T13:33:37.841Z,99201.34
2023-03-27T13:36:11.114Z,99194.16
2023-03-27T13:39:13.670Z,99196.50
2023-03-27T13:42:10.071Z,99190.84
2023-03-27T13:44:52.270Z,99199.16
2023-03-27T13:47:54.226Z,99201.28
2023-03-27T13:50:52.678Z,99192.09
2023-03-27T13:53:42.641Z,99183.53
2023-03-27T13:56:33.665Z,99202.84
2023-03-27T13:59:32.756Z,99219.31
2023-03-27T14:02:16.521Z,99239.19
2023-03-27T14:05:07.207Z,99273.44
2023-03-27T14:07:59.420Z,99262.63
2023-03-27T14:10:42.182Z,99241.41
2023-03-27T14:13:25.140Z,99235.06
2023-03-27T14:16:08.121Z,99238.59
2023-03-27T14:19:01.375Z,99226.50
2023-03-27T14:21:38.599Z,99226.47
2023-03-27T14:24:17.149Z,99223.13
2023-03-27T14:26:43.868Z,99224.31
2023-03-27T14:29:11.963Z,99234.03
2023-03-27T14:31:38.699Z,99242.59
2023-03-27T14:34:13.764Z,99235.03
2023-03-27T14:36:40.410Z,99239.31
2023-03-27T14:39:14.056Z,99238.13
2023-03-27T14:41:45.910Z,99245.50
2023-03-27T14:44:13.762Z,99243.50
2023-03-27T14:46:44.085Z,99251.91
2023-03-27T14:49:14.004Z,99262.91
2023-03-27T14:51:41.158Z,99306.84
2023-03-27T14:54:13.409Z,99318.50
2023-03-27T14:56:41.427Z,99342.91
2023-03-27T14:59:13.537Z,99352.81
2023-03-27T15:01:41.917Z,99351.25
2023-03-27T15:04:09.409Z,99347.38
2023-03-27T15:06:36.031Z,99337.91
2023-03-27T15:09:04.561Z,99330.22
2023-03-27T15:11:33.831Z,99336.59
2023-03-27T15:14:00.358Z,99323.88
2023-03-27T15:16:29.511Z,99318.22
2023-03-27T15:19:01.548Z,99318.59
2023-03-27T15:21:31.247Z,99327.91
2023-03-27T15:24:04.367Z,99334.13
2023-03-27T15:26:33.502Z,99322.22
2023-03-27T15:29:04.737Z,99324.91
2023-03-27T15:31:32.766Z,99321.81
2023-03-27T15:34:06.194Z,99326.81
2023-03-27T15:36:34.899Z,99339.06
2023-03-27T15:39:04.349Z,99331.16
2023-03-27T15:41:43.422Z,99339.16
2023-03-27T15:44:15.662Z,99342.44
2023-03-27T15:46:49.426Z,99337.25
2023-03-27T15:49:22.688Z,99335.41
2023-03-27T15:51:49.568Z,99336.53
2023-03-27T15:54:28.353Z,99347.19
2023-03-27T15:57:09.106Z,99335.31
2023-03-27T15:59:52.398Z,99331.09
2023-03-27T16:02:21.655Z,99331.91
2023-03-27T16:04:52.823Z,99365.16
2023-03-27T16:07:23.044Z,99404.56
2023-03-27T16:09:53.185Z,99392.75
2023-03-27T16:12:32.416Z,99414.25
2023-03-27T16:14:59.986Z,99402.50
2023-03-27T16:17:32.955Z,99391.69
2023-03-27T16:20:29.837Z,99396.19
2023-03-27T16:22:56.392Z,99388.72
2023-03-27T16:25:22.969Z,99384.16
2023-03-27T16:27:51.885Z,99391.97
2023-03-27T16:30:22.296Z,99385.53
2023-03-27T16:32:48.951Z,99403.59
2023-03-27T16:35:17.135Z,99394.50
2023-03-27T16:37:43.723Z,99396.34
2023-03-27T16:40:11.246Z,99395.00
2023-03-27T16:42:37.773Z,99409.19
2023-03-27T16:45:05.096Z,99398.94
2023-03-27T16:47:31.807Z,99403.72
2023-03-27T16:50:10.771Z,99390.47
2023-03-27T16:52:39.466Z,99391.28
2023-03-27T16:55:07.711Z,99401.75
2023-03-27T16:57:34.461Z,99395.56
2023-03-27T17:00:01.036Z,99400.00
2023-03-27T17:02:27.645Z,99398.22
2023-03-27T17:04:54.241Z,99404.19
2023-03-27T17:07:20.885Z,99405.28
2023-03-27T17:09:48.970Z,99428.19
2023-03-27T17:12:15.714Z,99455.41
2023-03-27T17:14:42.247Z,99477.00
2023-03-27T17:17:08.822Z,99466.84
2023-03-27T17:19:35.489Z,99479.19
2023-03-27T17:22:02.067Z,99476.47
2023-03-27T17:24:28.665Z,99478.31
2023-03-27T17:26:56.625Z,99485.03
2023-03-27T17:29:23.190Z,99481.78
2023-03-27T17:31:49.787Z,99489.31
2023-03-27T17:34:16.453Z,99485.03
2023-03-27T17:36:49.782Z,99482.03
2023-03-27T17:39:21.069Z,99487.94
2023-03-27T17:41:47.677Z,99481.47
2023-03-27T17:44:15.599Z,99492.47
2023-03-27T17:46:42.282Z,99490.28
2023-03-27T17:49:08.990Z,99488.97
2023-03-27T17:51:35.690Z,99496.16
2023-03-27T17:54:02.300Z,99503.97
2023-03-27T17:56:28.926Z,99507.72
2023-03-27T17:58:55.524Z,99500.69
2023-03-27T18:01:24.159Z,99502.53
2023-03-27T18:03:51.225Z,99507.09
2023-03-27T18:06:18.301Z,99515.13
2023-03-27T18:08:45.932Z,99513.22
2023-03-27T18:11:15.069Z,99513.69
2023-03-27T18:13:41.708Z,99515.25
2023-03-27T18:16:09.607Z,99516.25
2023-03-27T18:18:37.689Z,99512.75
2023-03-27T18:21:04.963Z,99518.59
2023-03-27T18:23:31.673Z,99517.00
2023-03-27T18:25:58.508Z,99519.88
2023-03-27T18:28:25.359Z,99523.06
2023-03-27T18:30:59.296Z,99516.81
2023-03-27T18:33:25.906Z,99512.72
2023-03-27T18:35:55.651Z,99518.59
2023-03-27T18:38:22.600Z,99526.88
2023-03-27T18:40:49.285Z,99524.16
2023-03-27T18:43:15.907Z,99528.66
2023-03-27T18:45:42.723Z,99527.50
2023-03-27T18:48:09.626Z,99534.75
2023-03-27T18:50:36.199Z,99538.16
2023-03-27T18:53:04.337Z,99547.22
2023-03-27T18:55:31.694Z,99543.47
2023-03-27T18:57:58.267Z,99546.19
2023-03-27T19:00:24.835Z,99555.59
2023-03-27T19:02:51.492Z,99547.00
2023-03-27T19:05:18.091Z,99556.06
2023-03-27T19:07:45.194Z,99560.38
2023-03-27T19:10:13.306Z,99559.59
2023-03-27T19:12:39.880Z,99559.94
2023-03-27T19:15:19.449Z,99556.16
2023-03-27T19:17:46.789Z,99556.16
2023-03-27T19:20:13.368Z,99559.94
2023-03-27T19:22:39.944Z,99559.50
2023-03-27T19:25:07.819Z,99568.34
2023-03-27T19:27:38.981Z,99572.31
2023-03-27T19:30:08.518Z,99565.91
2023-03-27T19:32:35.141Z,99565.09
2023-03-27T19:35:01.808Z,99566.97
2023-03-27T19:37:28.421Z,99571.53
2023-03-27T19:39:55.450Z,99568.28
2023-03-27T19:42:21.989Z,99581.63
2023-03-27T19:44:50.008Z,99572.50
2023-03-27T19:47:16.685Z,99573.75
2023-03-27T19:49:43.562Z,99577.97
2023-03-27T19:52:10.096Z,99579.53
2023-03-27T19:54:36.680Z,99577.13
2023-03-27T19:57:03.531Z,99580.28
2023-03-27T19:59:31.007Z,99583.19
2023-03-27T20:01:59.552Z,99585.03
2023-03-27T20:04:26.174Z,99585.03
2023-03-27T20:06:52.828Z,99589.03
2023-03-27T20:09:19.573Z,99585.28
2023-03-27T20:11:46.130Z,99587.41
2023-03-27T20:14:13.533Z,99589.03
2023-03-27T20:16:40.169Z,99588.22
2023-03-27T20:19:08.321Z,99586.84
2023-03-27T20:21:36.625Z,99580.66
2023-03-27T20:24:04.238Z,99584.44
2023-03-27T20:26:30.977Z,99588.97
2023-03-27T20:28:57.570Z,99592.13
2023-03-27T20:31:24.159Z,99585.97
2023-03-27T20:33:50.776Z,99598.22
2023-03-27T20:36:18.697Z,99589.66
2023-03-27T20:38:45.297Z,99597.69
2023-03-27T20:41:12.038Z,99597.34
2023-03-27T20:43:38.672Z,99598.41
2023-03-27T20:46:05.790Z,99599.47
2023-03-27T20:48:32.464Z,99601.09
2023-03-27T20:50:59.094Z,99603.72
2023-03-27T20:53:27.416Z,99602.91
2023-03-27T20:56:00.087Z,99607.69
2023-03-27T20:58:27.952Z,99607.88
2023-03-27T21:00:55.193Z,99619.88
2023-03-27T21:03:21.983Z,99612.28
2023-03-27T21:05:49.200Z,99609.59
2023-03-27T21:08:15.957Z,99610.22
2023-03-27T21:10:52.274Z,99612.19
2023-03-27T21:13:18.811Z,99614.56
2023-03-27T21:15:45.630Z,99618.34
2023-03-27T21:18:12.199Z,99621.25
2023-03-27T21:20:38.866Z,99621.25
2023-03-27T21:23:05.413Z,99614.75
2023-03-27T21:25:33.748Z,99609.84
2023-03-27T21:28:01.777Z,99614.81
2023-03-27T21:30:46.284Z,99619.75
2023-03-27T21:33:15.114Z,99619.69
2023-03-27T21:35:42.048Z,99617.03
2023-03-27T21:38:09.014Z,99615.06
2023-03-27T21:40:37.834Z,99608.03
2023-03-27T21:43:06.182Z,99620.59
2023-03-27T21:45:32.828Z,99612.81
2023-03-27T21:47:59.494Z,99619.69
2023-03-27T21:50:26.165Z,99620.81
2023-03-27T21:52:52.774Z,99618.88
2023-03-27T21:55:20.127Z,99628.28
2023-03-27T21:57:46.746Z,99625.59
2023-03-27T22:00:15.472Z,99631.75
2023-03-27T22:02:42.152Z,99624.06
2023-03-27T22:05:09.201Z,99628.63
2023-03-27T22:07:35.831Z,99631.53
2023-03-27T22:10:02.467Z,99631.91
2023-03-27T22:12:29.064Z,99632.09
2023-03-27T22:14:55.687Z,99637.50
2023-03-27T22:17:24.042Z,99633.06
2023-03-27T22:19:52.046Z,99638.91
2023-03-27T22:22:18.767Z,99633.53
2023-03-27T22:24:45.522Z,99639.53
2023-03-27T22:27:12.073Z,99644.81
2023-03-27T22:29:38.627Z,99640.34
2023-03-27T22:32:05.551Z,99647.50
2023-03-27T22:34:33.589Z,99651.44
2023-03-27T22:37:00.138Z,99649.91
2023-03-27T22:39:26.720Z,99652.81
2023-03-27T22:41:53.539Z,99656.69
2023-03-27T22:44:20.234Z,99655.81
2023-03-27T22:46:46.825Z,99658.66
2023-03-27T22:49:14.667Z,99665.63
2023-03-27T22:51:42.640Z,99664.31
2023-03-27T22:54:09.211Z,99664.69
2023-03-27T22:56:35.857Z,99665.69
2023-03-27T22:59:02.693Z,99666.56
2023-03-27T23:01:29.387Z,99665.56
2023-03-27T23:03:56.045Z,99669.88
2023-03-27T23:06:23.624Z,99673.69
2023-03-27T23:08:51.672Z,99671.31
2023-03-27T23:11:19.057Z,99671.19
2023-03-27T23:13:46.295Z,99690.16
2023-03-27T23:16:13.074Z,99674.50
2023-03-27T23:18:39.891Z,99687.69
2023-03-27T23:21:08.727Z,99686.56
2023-03-27T23:23:37.155Z,99687.38
2023-03-27T23:26:05.679Z,99693.22
2023-03-27T23:28:34.137Z,99693.22
2023-03-27T23:31:03.412Z,99692.59
2023-03-27T23:33:34.933Z,99697.38
2023-03-27T23:36:03.625Z,99693.25
2023-03-27T23:38:30.617Z,99696.75
2023-03-27T23:40:58.650Z,99707.69
2023-03-27T23:43:27.887Z,99704.34
2023-03-27T23:45:54.779Z,99715.16
2023-03-27T23:48:21.580Z,99708.91
2023-03-27T23:50:48.816Z,99717.25
2023-03-27T23:53:15.372Z,99720.00
2023-03-27T23:55:41.914Z,99717.03
2023-03-27T23:58:08.433Z,99730.06
